This demonstration page uses our WeatherBlox Daily Observations layout. Learn more.

39.92423, -83.80882

Hourly Observations for September 24, 2019

Temp ( °F °C ) Dew Point ( °F °C ) Humidity (%) Winds ( mph kmh ) Pressure ( in mb ) Visibility ( mi km ) Precip ( " mm )
12:56 am 00:56 Clear 57 13.9 50 10 78 78 NW 5 7 30 1016 10 16.09344 0 0
1:56 am 01:56 Clear 56 13.3 50 10 81 81 WSW 3 6 30 1016 10 16.09344 0 0
2:56 am 02:56 Clear 53 11.7 51 10.6 93 93 W 3 6 30 1016 10 16.09344 0 0
3:56 am 03:56 Clear 53 11.7 51 10.6 93 93 W 3 6 30 1016 10 16.09344 0 0
4:56 am 04:56 Clear 52 11.1 50 10 93 93 Calm 30 1016 10 16.09344 0 0
5:56 am 05:56 Clear 51 10.6 50 10 96 96 Calm 30.03 1017 10 16.09344 0 0
6:56 am 06:56 Clear 50 10 50 10 100 100 SW 5 7 30.03 1017 10 16.09344 0 0
7:56 am 07:56 Sunny 51 10.6 50 10 96 96 WSW 3 6 30.03 1017 10 16.09344 0 0
8:56 am 08:56 Sunny 59 15 53 11.7 81 81 WNW 5 7 30.03 1017 10 16.09344 0 0
9:56 am 09:56 Sunny 63 17.2 55 12.8 76 76 WSW 5 7 30.06 1018 10 16.09344 0 0
10:56 am 10:56 Sunny 67 19.4 55 12.8 66 66 VRB 3 6 30.03 1017 10 16.09344 0 0
11:56 am 11:56 Sunny 73 22.8 51 10.6 46 46 W 12 19 30.03 1017 10 16.09344 0 0
12:56 pm 12:56 Mostly Sunny 74 23.3 48 8.9 40 40 W 5 7 30 1016 10 16.09344 0 0
1:56 pm 13:56 Partly Cloudy 75 23.9 47 8.3 37 37 W 8 13 30 1016 10 16.09344 0 0
2:56 pm 14:56 Sunny 75 23.9 47 8.3 37 37 VRB 5 7 29.97 1015 10 16.09344 0 0
3:56 pm 15:56 Sunny 76 24.4 48 8.9 37 37 SSW 7 11 29.97 1015 10 16.09344 0 0
4:56 pm 16:56 Sunny 76 24.4 47 8.3 36 36 SW 6 9 29.94 1014 10 16.09344 0 0
5:56 pm 17:56 Sunny 75 23.9 48 8.9 39 39 SW 6 9 29.94 1014 10 16.09344 0 0
6:56 pm 18:56 Sunny 72 22.2 51 10.6 48 48 SW 3 6 29.94 1014 10 16.09344 0 0
7:56 pm 19:56 Clear 67 19.4 53 11.7 61 61 SSW 3 6 29.94 1014 10 16.09344 0 0
8:56 pm 20:56 Clear 63 17.2 54 12.2 73 73 Calm 29.94 1014 10 16.09344 0 0
9:56 pm 21:56 Clear 60 15.6 55 12.8 84 84 E 3 6 29.94 1014 10 16.09344 0 0
10:56 pm 22:56 Clear 60 15.6 52 11.1 75 75 SSE 5 7 29.91 1013 10 16.09344 0 0
11:56 pm 23:56 Clear 61 16.1 52 11.1 72 72 SSW 3 6 29.91 1013 10 16.09344 0 0

Powered by AerisWeather